createdAt,value
2022-12-29T00:01:03.196Z,5.16
2022-12-29T00:03:31.735Z,5.17
2022-12-29T00:06:41.967Z,5.17
2022-12-29T00:09:12.839Z,5.19
2022-12-29T00:11:41.513Z,5.21
2022-12-29T00:14:30.094Z,5.22
2022-12-29T00:16:58.775Z,5.24
2022-12-29T00:19:45.908Z,5.25
2022-12-29T00:22:34.846Z,5.24
2022-12-29T00:25:22.692Z,5.25
2022-12-29T00:28:09.797Z,5.26
2022-12-29T00:30:58.693Z,5.27
2022-12-29T00:33:50.756Z,5.29
2022-12-29T00:36:48.185Z,5.28
2022-12-29T00:39:38.627Z,5.28
2022-12-29T00:42:27.429Z,5.27
2022-12-29T00:44:55.973Z,5.26
2022-12-29T00:47:24.515Z,5.25
2022-12-29T00:49:52.944Z,5.25
2022-12-29T00:52:21.320Z,5.23
2022-12-29T00:54:49.759Z,5.23
2022-12-29T00:57:18.353Z,5.22
2022-12-29T00:59:46.816Z,5.23
2022-12-29T01:02:15.305Z,5.21
2022-12-29T01:04:43.871Z,5.18
2022-12-29T01:07:18.407Z,5.17
2022-12-29T01:10:05.471Z,5.16
2022-12-29T01:12:46.485Z,5.13
2022-12-29T01:15:16.379Z,5.10
2022-12-29T01:17:44.832Z,5.08
2022-12-29T01:20:13.550Z,5.07
2022-12-29T01:22:43.846Z,5.07
2022-12-29T01:25:12.378Z,5.09
2022-12-29T01:27:40.975Z,5.10
2022-12-29T01:30:10.075Z,5.12
2022-12-29T01:32:38.523Z,5.15
2022-12-29T01:35:07.227Z,5.18
2022-12-29T01:37:35.829Z,5.20
2022-12-29T01:40:05.587Z,5.22
2022-12-29T01:42:34.044Z,5.27
2022-12-29T01:45:14.785Z,5.30
2022-12-29T01:47:53.489Z,5.33
2022-12-29T01:50:30.202Z,5.35
2022-12-29T01:53:03.142Z,5.36
2022-12-29T01:55:37.651Z,5.38
2022-12-29T01:58:07.996Z,5.38
2022-12-29T02:00:38.163Z,5.41
2022-12-29T02:03:08.950Z,5.42
2022-12-29T02:06:05.368Z,5.44
2022-12-29T02:08:34.177Z,5.46
2022-12-29T02:11:04.033Z,5.47
2022-12-29T02:13:32.591Z,5.47
2022-12-29T02:16:22.483Z,5.47
2022-12-29T02:19:06.063Z,5.51
2022-12-29T02:22:13.962Z,5.54
2022-12-29T02:25:18.224Z,5.55
2022-12-29T02:27:56.778Z,5.60
2022-12-29T02:30:58.121Z,5.62
2022-12-29T02:33:45.308Z,5.66
2022-12-29T02:36:40.339Z,5.69
2022-12-29T02:39:30.451Z,5.71
2022-12-29T02:42:10.385Z,5.73
2022-12-29T02:45:03.140Z,5.76
2022-12-29T02:47:58.224Z,5.80
2022-12-29T02:50:34.651Z,5.82
2022-12-29T02:53:07.813Z,5.84
2022-12-29T02:55:36.387Z,5.84
2022-12-29T02:58:18.620Z,5.84
2022-12-29T03:01:18.065Z,5.83
2022-12-29T03:04:18.148Z,5.82
2022-12-29T03:06:55.842Z,5.80
2022-12-29T03:09:53.842Z,5.80
2022-12-29T03:12:55.645Z,5.78
2022-12-29T03:16:01.348Z,5.77
2022-12-29T03:18:52.600Z,5.78
2022-12-29T03:21:49.325Z,5.77
2022-12-29T03:24:22.164Z,5.78
2022-12-29T03:26:54.375Z,5.78
2022-12-29T03:29:22.740Z,5.78
2022-12-29T03:31:54.389Z,5.78
2022-12-29T03:34:25.358Z,5.78
2022-12-29T03:36:56.551Z,5.74
2022-12-29T03:39:26.616Z,5.69
2022-12-29T03:42:02.786Z,5.65
2022-12-29T03:44:38.332Z,5.61
2022-12-29T03:47:08.242Z,5.56
2022-12-29T03:49:36.626Z,5.51
2022-12-29T03:52:05.716Z,5.49
2022-12-29T03:54:34.367Z,5.46
2022-12-29T03:57:02.815Z,5.42
2022-12-29T03:59:31.167Z,5.38
2022-12-29T04:01:59.623Z,5.35
2022-12-29T04:04:28.145Z,5.32
2022-12-29T04:07:03.963Z,5.28
2022-12-29T04:09:32.679Z,5.25
2022-12-29T04:12:01.098Z,5.22
2022-12-29T04:14:29.448Z,5.20
2022-12-29T04:16:57.830Z,5.16
2022-12-29T04:19:26.180Z,5.13
2022-12-29T04:21:54.548Z,5.12
2022-12-29T04:24:23.010Z,5.10
2022-12-29T04:26:51.473Z,5.09
2022-12-29T04:29:19.851Z,5.11
2022-12-29T04:31:48.391Z,5.14
2022-12-29T04:34:16.842Z,5.16
2022-12-29T04:36:47.030Z,5.18
2022-12-29T04:39:15.375Z,5.19
2022-12-29T04:41:43.992Z,5.19
2022-12-29T04:44:12.369Z,5.22
2022-12-29T04:46:40.912Z,5.24
2022-12-29T04:49:10.001Z,5.25
2022-12-29T04:51:38.427Z,5.25
2022-12-29T04:54:06.777Z,5.24
2022-12-29T04:56:35.164Z,5.25
2022-12-29T04:59:03.642Z,5.26
2022-12-29T05:01:32.100Z,5.26
2022-12-29T05:04:00.597Z,5.27
2022-12-29T05:07:06.960Z,5.29
2022-12-29T05:09:35.960Z,5.30
2022-12-29T05:12:05.090Z,5.31
2022-12-29T05:14:33.456Z,5.31
2022-12-29T05:17:02.090Z,5.32
2022-12-29T05:19:30.536Z,5.36
2022-12-29T05:21:58.988Z,5.36
2022-12-29T05:24:27.357Z,5.39
2022-12-29T05:26:55.705Z,5.41
2022-12-29T05:29:24.091Z,5.43
2022-12-29T05:31:52.599Z,5.45
2022-12-29T05:34:21.034Z,5.47
2022-12-29T05:36:49.492Z,5.48
2022-12-29T05:39:18.009Z,5.50
2022-12-29T05:41:47.341Z,5.53
2022-12-29T05:44:15.774Z,5.53
2022-12-29T05:46:44.171Z,5.52
2022-12-29T05:49:12.674Z,5.54
2022-12-29T05:51:41.029Z,5.56
2022-12-29T05:54:09.453Z,5.59
2022-12-29T05:56:37.815Z,5.62
2022-12-29T05:59:06.273Z,5.67
2022-12-29T06:01:35.813Z,5.71
2022-12-29T06:04:04.638Z,5.75
2022-12-29T06:06:35.117Z,5.78
2022-12-29T06:09:04.135Z,5.80
2022-12-29T06:11:32.507Z,5.83
2022-12-29T06:14:00.897Z,5.85
2022-12-29T06:16:29.394Z,5.88
2022-12-29T06:18:57.874Z,5.89
2022-12-29T06:21:26.270Z,5.91
2022-12-29T06:23:54.899Z,5.92
2022-12-29T06:26:23.334Z,5.95
2022-12-29T06:28:52.057Z,5.98
2022-12-29T06:31:20.625Z,6.00
2022-12-29T06:33:50.232Z,6.02
2022-12-29T06:36:19.037Z,6.03
2022-12-29T06:38:47.545Z,6.05
2022-12-29T06:41:16.046Z,6.06
2022-12-29T06:43:45.793Z,6.07
2022-12-29T06:46:14.228Z,6.07
2022-12-29T06:48:43.560Z,6.08
2022-12-29T06:51:11.903Z,6.09
2022-12-29T06:53:40.384Z,6.08
2022-12-29T06:56:09.447Z,6.08
2022-12-29T06:58:37.824Z,6.08
2022-12-29T07:01:06.325Z,6.09
2022-12-29T07:03:34.875Z,6.08
2022-12-29T07:06:03.906Z,6.09
2022-12-29T07:08:33.716Z,6.11
2022-12-29T07:11:02.251Z,6.12
2022-12-29T07:13:30.753Z,6.14
2022-12-29T07:15:59.125Z,6.15
2022-12-29T07:18:27.516Z,6.15
2022-12-29T07:20:56.215Z,6.16
2022-12-29T07:23:25.713Z,6.17
2022-12-29T07:26:02.566Z,6.19
2022-12-29T07:28:31.671Z,6.21
2022-12-29T07:31:00.818Z,6.23
2022-12-29T07:33:33.545Z,6.25
2022-12-29T07:36:02.357Z,6.26
2022-12-29T07:38:30.725Z,6.26
2022-12-29T07:40:59.861Z,6.28
2022-12-29T07:43:28.921Z,6.30
2022-12-29T07:45:57.428Z,6.31
2022-12-29T07:48:26.052Z,6.32
2022-12-29T07:50:55.127Z,6.33
2022-12-29T07:53:23.581Z,6.33
2022-12-29T07:55:52.466Z,6.34
2022-12-29T07:58:20.817Z,6.35
2022-12-29T08:00:49.258Z,6.36
2022-12-29T08:03:17.626Z,6.36
2022-12-29T08:05:46.139Z,6.37
2022-12-29T08:08:14.485Z,6.39
2022-12-29T08:10:42.950Z,6.39
2022-12-29T08:13:11.348Z,6.39
2022-12-29T08:15:40.565Z,6.40
2022-12-29T08:18:09.026Z,6.41
2022-12-29T08:20:37.484Z,6.42
2022-12-29T08:23:05.948Z,6.43
2022-12-29T08:25:34.359Z,6.42
2022-12-29T08:28:02.949Z,6.41
2022-12-29T08:30:31.278Z,6.42
2022-12-29T08:32:59.762Z,6.43
2022-12-29T08:35:28.237Z,6.42
2022-12-29T08:37:56.813Z,6.43
2022-12-29T08:40:25.813Z,6.45
2022-12-29T08:42:54.386Z,6.45
2022-12-29T08:45:22.885Z,6.48
2022-12-29T08:47:51.484Z,6.53
2022-12-29T08:50:19.836Z,6.55
2022-12-29T08:52:48.484Z,6.57
2022-12-29T08:55:17.221Z,6.62
2022-12-29T08:57:45.774Z,6.63
2022-12-29T09:00:16.614Z,6.64
2022-12-29T09:02:46.002Z,6.64
2022-12-29T09:05:15.138Z,6.64
2022-12-29T09:07:47.198Z,6.64
2022-12-29T09:10:16.339Z,6.67
2022-12-29T09:12:45.108Z,6.67
2022-12-29T09:15:14.236Z,6.66
2022-12-29T09:17:46.650Z,6.67
2022-12-29T09:20:18.088Z,6.70
2022-12-29T09:22:47.871Z,6.73
2022-12-29T09:25:16.964Z,6.79
2022-12-29T09:27:45.597Z,6.84
2022-12-29T09:30:15.899Z,6.90
2022-12-29T09:32:53.404Z,7.01
2022-12-29T09:35:23.327Z,7.18
2022-12-29T09:37:52.502Z,7.40
2022-12-29T09:40:27.861Z,7.63
2022-12-29T09:44:01.433Z,7.85
2022-12-29T09:46:35.886Z,8.13
2022-12-29T09:49:22.842Z,8.22
2022-12-29T09:51:55.816Z,8.23
2022-12-29T09:54:56.516Z,8.24
2022-12-29T09:57:42.275Z,8.28
2022-12-29T10:00:18.072Z,8.31
2022-12-29T10:02:56.365Z,8.29
2022-12-29T10:05:49.267Z,8.28
2022-12-29T10:08:45.691Z,8.31
2022-12-29T10:11:34.007Z,8.37
2022-12-29T10:14:15.711Z,8.64
2022-12-29T10:16:57.798Z,8.89
2022-12-29T10:19:55.466Z,9.01
2022-12-29T10:22:45.175Z,9.06
2022-12-29T10:25:26.042Z,9.01
2022-12-29T10:28:00.725Z,8.87
2022-12-29T10:30:30.424Z,8.74
2022-12-29T10:33:02.498Z,8.65
2022-12-29T10:35:40.496Z,8.62
2022-12-29T10:38:42.832Z,8.60
2022-12-29T10:41:22.678Z,8.57
2022-12-29T10:43:56.686Z,8.54
2022-12-29T10:46:30.874Z,8.54
2022-12-29T10:48:59.400Z,8.55
2022-12-29T10:51:35.151Z,8.61
2022-12-29T10:54:21.952Z,8.75
2022-12-29T10:57:12.303Z,8.79
2022-12-29T10:59:40.847Z,8.86
2022-12-29T11:02:12.709Z,8.91
2022-12-29T11:04:50.668Z,8.95
2022-12-29T11:07:27.150Z,8.99
2022-12-29T11:09:56.189Z,9.10
2022-12-29T11:12:26.819Z,9.17
2022-12-29T11:15:15.487Z,9.15
2022-12-29T11:17:58.372Z,9.09
2022-12-29T11:20:35.166Z,9.05
2022-12-29T11:23:06.184Z,9.01
2022-12-29T11:25:34.859Z,8.99
2022-12-29T11:28:17.680Z,9.02
2022-12-29T11:30:46.659Z,9.05
2022-12-29T11:33:15.640Z,9.07
2022-12-29T11:35:45.039Z,9.10
2022-12-29T11:38:30.002Z,9.11
2022-12-29T11:40:58.632Z,9.13
2022-12-29T11:43:38.615Z,9.16
2022-12-29T11:46:08.524Z,9.17
2022-12-29T11:48:41.764Z,9.19
2022-12-29T11:51:12.873Z,9.21
2022-12-29T11:53:49.007Z,9.21
2022-12-29T11:56:40.166Z,9.26
2022-12-29T11:59:28.255Z,9.40
2022-12-29T12:02:00.259Z,9.59
2022-12-29T12:04:35.884Z,9.72
2022-12-29T12:07:17.147Z,9.79
2022-12-29T12:09:51.265Z,9.85
2022-12-29T12:12:29.374Z,9.88
2022-12-29T12:15:01.009Z,9.87
2022-12-29T12:18:01.008Z,9.84
2022-12-29T12:21:09.827Z,9.74
2022-12-29T12:23:43.607Z,9.68
2022-12-29T12:26:20.108Z,9.68
2022-12-29T12:29:06.139Z,9.68
2022-12-29T12:31:54.642Z,9.68
2022-12-29T12:34:45.061Z,9.68
2022-12-29T12:38:05.421Z,9.68
2022-12-29T12:40:55.644Z,9.68
2022-12-29T12:43:45.446Z,9.69
2022-12-29T12:46:19.481Z,9.68
2022-12-29T12:49:22.082Z,9.67
2022-12-29T12:52:19.414Z,9.67
2022-12-29T12:55:15.656Z,9.67
2022-12-29T12:58:12.082Z,9.68
2022-12-29T13:01:15.583Z,9.66
2022-12-29T13:03:46.731Z,9.63
2022-12-29T13:07:09.106Z,9.64
2022-12-29T13:09:56.759Z,9.62
2022-12-29T13:12:33.799Z,9.62
2022-12-29T13:15:20.578Z,9.60
2022-12-29T13:18:01.971Z,9.55
2022-12-29T13:20:43.810Z,9.52
2022-12-29T13:23:32.915Z,9.47
2022-12-29T13:26:30.709Z,9.44
2022-12-29T13:29:33.718Z,9.41
2022-12-29T13:32:43.646Z,9.39
2022-12-29T13:35:39.409Z,9.40
2022-12-29T13:38:18.668Z,9.38
2022-12-29T13:40:53.461Z,9.40
2022-12-29T13:43:24.039Z,9.41
2022-12-29T13:46:15.138Z,9.41
2022-12-29T13:48:53.850Z,9.40
2022-12-29T13:51:27.941Z,9.36
2022-12-29T13:54:11.776Z,9.33
2022-12-29T13:56:52.502Z,9.33
2022-12-29T13:59:44.180Z,9.33
2022-12-29T14:02:48.510Z,9.31
2022-12-29T14:05:22.757Z,9.28
2022-12-29T14:08:15.065Z,9.26
2022-12-29T14:10:52.903Z,9.24
2022-12-29T14:13:26.860Z,9.22
2022-12-29T14:15:59.390Z,9.20
2022-12-29T14:18:31.177Z,9.18
2022-12-29T14:21:08.579Z,9.16
2022-12-29T14:23:48.048Z,9.14
2022-12-29T14:26:32.271Z,9.11
2022-12-29T14:29:25.097Z,9.10
2022-12-29T14:31:54.325Z,9.07
2022-12-29T14:34:22.687Z,9.04
2022-12-29T14:36:55.685Z,9.01
2022-12-29T14:39:45.516Z,8.97
2022-12-29T14:42:18.793Z,8.95
2022-12-29T14:44:53.257Z,8.93
2022-12-29T14:47:24.339Z,8.91
2022-12-29T14:49:54.159Z,8.92
2022-12-29T14:52:26.913Z,8.92
2022-12-29T14:55:08.581Z,8.93
2022-12-29T14:57:42.460Z,8.93
2022-12-29T15:00:20.638Z,8.89
2022-12-29T15:03:02.538Z,8.82
2022-12-29T15:05:42.129Z,8.73
2022-12-29T15:08:12.956Z,8.66
2022-12-29T15:10:48.344Z,8.60
2022-12-29T15:13:22.660Z,8.54
2022-12-29T15:15:51.370Z,8.47
2022-12-29T15:18:32.827Z,8.41
2022-12-29T15:21:04.892Z,8.34
2022-12-29T15:23:36.483Z,8.26
2022-12-29T15:26:09.742Z,8.17
2022-12-29T15:28:46.697Z,8.08
2022-12-29T15:31:18.644Z,7.98
2022-12-29T15:33:51.057Z,7.91
2022-12-29T15:36:28.182Z,7.85
2022-12-29T15:38:57.949Z,7.79
2022-12-29T15:42:03.113Z,7.74
2022-12-29T15:44:43.783Z,7.69
2022-12-29T15:47:27.420Z,7.66
2022-12-29T15:50:03.457Z,7.62
2022-12-29T15:52:34.051Z,7.60
2022-12-29T15:55:03.669Z,7.59
2022-12-29T15:57:38.724Z,7.60
2022-12-29T16:00:24.516Z,7.62
2022-12-29T16:02:55.410Z,7.61
2022-12-29T16:05:24.908Z,7.60
2022-12-29T16:07:56.387Z,7.58
2022-12-29T16:10:37.553Z,7.55
2022-12-29T16:13:18.349Z,7.54
2022-12-29T16:15:48.474Z,7.56
2022-12-29T16:18:30.686Z,7.59
2022-12-29T16:20:59.161Z,7.59
2022-12-29T16:23:31.442Z,7.61
2022-12-29T16:26:01.004Z,7.63
2022-12-29T16:28:40.228Z,7.65
2022-12-29T16:31:35.223Z,7.64
2022-12-29T16:34:38.966Z,7.64
2022-12-29T16:37:26.142Z,7.64
2022-12-29T16:39:54.510Z,7.63
2022-12-29T16:42:37.651Z,7.62
2022-12-29T16:45:21.708Z,7.63
2022-12-29T16:48:08.354Z,7.64
2022-12-29T16:50:40.022Z,7.61
2022-12-29T16:53:29.652Z,7.60
2022-12-29T16:56:02.191Z,7.58
2022-12-29T16:58:32.969Z,7.56
2022-12-29T17:01:03.792Z,7.53
2022-12-29T17:03:58.644Z,7.49
2022-12-29T17:06:27.121Z,7.45
2022-12-29T17:08:55.505Z,7.44
2022-12-29T17:11:50.187Z,7.40
2022-12-29T17:14:45.912Z,7.36
2022-12-29T17:17:40.624Z,7.32
2022-12-29T17:20:21.853Z,7.29
2022-12-29T17:22:52.744Z,7.25
2022-12-29T17:25:29.286Z,7.24
2022-12-29T17:28:28.378Z,7.21
2022-12-29T17:31:03.890Z,7.22
2022-12-29T17:33:37.830Z,7.25
2022-12-29T17:36:06.470Z,7.27
2022-12-29T17:38:38.261Z,7.29
2022-12-29T17:41:15.195Z,7.32
2022-12-29T17:43:43.695Z,7.38
2022-12-29T17:46:12.826Z,7.42
2022-12-29T17:48:41.213Z,7.46
2022-12-29T17:51:11.543Z,7.48
2022-12-29T17:53:40.313Z,7.50
2022-12-29T17:56:10.543Z,7.54
2022-12-29T17:58:38.933Z,7.58
2022-12-29T18:01:07.964Z,7.62
2022-12-29T18:03:41.653Z,7.64
2022-12-29T18:06:12.561Z,7.65
2022-12-29T18:08:42.668Z,7.64
2022-12-29T18:11:40.568Z,7.65
2022-12-29T18:14:15.050Z,7.65
2022-12-29T18:16:43.462Z,7.64
2022-12-29T18:19:12.482Z,7.62
2022-12-29T18:21:43.803Z,7.57
2022-12-29T18:24:15.768Z,7.52
2022-12-29T18:26:44.515Z,7.48
2022-12-29T18:29:13.465Z,7.45
2022-12-29T18:31:42.218Z,7.44
2022-12-29T18:34:15.974Z,7.43
2022-12-29T18:36:44.640Z,7.44
2022-12-29T18:39:13.633Z,7.46
2022-12-29T18:41:42.060Z,7.47
2022-12-29T18:44:14.228Z,7.50
2022-12-29T18:46:43.392Z,7.51
2022-12-29T18:49:11.881Z,7.53
2022-12-29T18:51:40.551Z,7.54
2022-12-29T18:54:33.101Z,7.53
2022-12-29T18:57:01.840Z,7.53
2022-12-29T18:59:29.123Z,7.54
2022-12-29T19:01:57.566Z,7.52
2022-12-29T19:04:26.204Z,7.50
2022-12-29T19:07:23.501Z,7.46
2022-12-29T19:09:52.196Z,7.42
2022-12-29T19:12:25.045Z,7.39
2022-12-29T19:14:56.691Z,7.36
2022-12-29T19:17:25.507Z,7.35
2022-12-29T19:19:54.286Z,7.31
2022-12-29T19:22:22.675Z,7.29
2022-12-29T19:24:56.323Z,7.28
2022-12-29T19:27:28.246Z,7.27
2022-12-29T19:29:57.316Z,7.27
2022-12-29T19:32:26.176Z,7.26
2022-12-29T19:34:54.591Z,7.25
2022-12-29T19:37:23.588Z,7.26
2022-12-29T19:39:53.541Z,7.24
2022-12-29T19:42:22.437Z,7.21
2022-12-29T19:44:51.298Z,7.17
2022-12-29T19:47:21.038Z,7.14
2022-12-29T19:49:50.194Z,7.14
2022-12-29T19:52:18.800Z,7.15
2022-12-29T19:54:47.143Z,7.17
2022-12-29T19:57:15.589Z,7.19
2022-12-29T19:59:44.080Z,7.20
2022-12-29T20:02:29.034Z,7.21
2022-12-29T20:04:58.143Z,7.24
2022-12-29T20:07:34.097Z,7.26
2022-12-29T20:10:03.008Z,7.27
2022-12-29T20:12:31.516Z,7.27
2022-12-29T20:15:00.376Z,7.26
2022-12-29T20:18:02.375Z,7.24
2022-12-29T20:20:17.761Z,7.19
2022-12-29T20:22:46.313Z,7.16
2022-12-29T20:28:03.130Z,7.11
2022-12-29T20:30:32.162Z,7.11
2022-12-29T20:33:06.092Z,7.09
2022-12-29T20:35:37.462Z,7.06
2022-12-29T20:38:06.192Z,7.03
2022-12-29T20:40:44.147Z,6.99
2022-12-29T20:43:16.813Z,6.96
2022-12-29T20:45:45.308Z,6.91
2022-12-29T20:48:13.712Z,6.86
2022-12-29T20:50:42.462Z,6.84
2022-12-29T20:53:12.188Z,6.80
2022-12-29T20:55:41.394Z,6.75
2022-12-29T20:58:26.183Z,6.72
2022-12-29T21:00:56.429Z,6.69
2022-12-29T21:03:25.412Z,6.68
2022-12-29T21:05:55.581Z,6.67
2022-12-29T21:08:30.639Z,6.66
2022-12-29T21:10:59.562Z,6.63
2022-12-29T21:13:28.494Z,6.59
2022-12-29T21:16:04.730Z,6.55
2022-12-29T21:18:33.760Z,6.54
2022-12-29T21:21:08.454Z,6.54
2022-12-29T21:23:39.530Z,6.54
2022-12-29T21:26:13.627Z,6.53
2022-12-29T21:28:43.871Z,6.54
2022-12-29T21:31:35.599Z,6.56
2022-12-29T21:34:06.524Z,6.59
2022-12-29T21:36:34.880Z,6.62
2022-12-29T21:39:04.630Z,6.66
2022-12-29T21:41:33.138Z,6.69
2022-12-29T21:44:20.544Z,6.71
2022-12-29T21:46:48.908Z,6.74
2022-12-29T21:49:17.363Z,6.78
2022-12-29T21:51:51.481Z,6.79
2022-12-29T21:54:47.619Z,6.79
2022-12-29T21:57:37.498Z,6.82
2022-12-29T22:00:27.266Z,6.84
2022-12-29T22:03:22.494Z,6.86
2022-12-29T22:06:11.948Z,6.88
2022-12-29T22:08:59.660Z,6.86
2022-12-29T22:11:46.889Z,6.86
2022-12-29T22:14:15.294Z,6.85
2022-12-29T22:16:43.734Z,6.86
2022-12-29T22:19:12.074Z,6.90
2022-12-29T22:21:40.518Z,6.91
2022-12-29T22:24:09.286Z,6.93
2022-12-29T22:26:37.737Z,6.93
2022-12-29T22:29:06.307Z,6.95
2022-12-29T22:31:35.169Z,6.95
2022-12-29T22:34:05.388Z,6.96
2022-12-29T22:36:33.815Z,6.96
2022-12-29T22:39:02.335Z,6.95
2022-12-29T22:41:30.877Z,6.93
2022-12-29T22:43:59.302Z,6.91
2022-12-29T22:46:27.947Z,6.91
2022-12-29T22:48:57.960Z,6.90
2022-12-29T22:51:26.775Z,6.87
2022-12-29T22:53:55.150Z,6.84
2022-12-29T22:56:24.035Z,6.81
2022-12-29T22:58:52.478Z,6.79
2022-12-29T23:01:24.036Z,6.79
2022-12-29T23:03:52.464Z,6.78
2022-12-29T23:06:20.838Z,6.78
2022-12-29T23:08:54.596Z,6.78
2022-12-29T23:11:23.639Z,6.78
2022-12-29T23:13:50.730Z,6.78
2022-12-29T23:16:20.104Z,6.79
2022-12-29T23:18:50.181Z,6.80
2022-12-29T23:21:18.987Z,6.79
2022-12-29T23:23:53.852Z,6.78
2022-12-29T23:26:39.109Z,6.76
2022-12-29T23:29:10.103Z,6.74
2022-12-29T23:31:39.683Z,6.73
2022-12-29T23:34:10.446Z,6.72
2022-12-29T23:36:39.454Z,6.71
2022-12-29T23:39:11.574Z,6.71
2022-12-29T23:41:39.973Z,6.69
2022-12-29T23:44:08.396Z,6.66
2022-12-29T23:46:37.357Z,6.64
2022-12-29T23:49:06.103Z,6.63
2022-12-29T23:51:34.434Z,6.62
2022-12-29T23:54:03.816Z,6.61
2022-12-29T23:56:32.730Z,6.60
2022-12-29T23:59:05.476Z,6.58
